CheckWX is a tool to help pilots better visualize weather data.  It is not intended as a substitute for an official pre-flight weather briefing.

21:33:29 UTC

EPOK TAF
Oksywie Military Air Base Airport
Gdynia, Poland
TAF EPOK 172000Z 1721/1806 28012KT 9999 BKN025 TEMPO 1721/1806 31018G28KT 8000 SHRA SCT010 BKN020CB PROB30 TEMPO 1721/1806 VRB25G36KT 4000 TSRA BKN007 BKN015CB

Sep-17@
21:00 UTC

Sep-17 @ 21:00 UTC

Sep-18@
06:00 UTC

Sep-18 @ 06:00 UTC

TAF EPOK 172000Z 1721/1806 28012KT 9999 BKN025
Wind
  • 280° at 12 KTS
Cloud Levels
  • Broken at 2,500' AGL

Sep-17@
21:00 UTC

Sep-17 @ 21:00 UTC

Sep-18@
06:00 UTC

Sep-18 @ 06:00 UTC

TEMPO 1721/1806 31018G28KT 8000 SHRA SCT010 BKN020CB

Temporary

Temporary Changes expected for less than half the time period

Wind
  • 310° at 18 KTS
  • {Gusting to 28 KTS
Conditions
Rain
Cloud Levels
  • Scattered at 1,000' AGL
  • Broken at 2,000' AGL

Sep-17@
21:00 UTC

Sep-17 @ 21:00 UTC

Sep-18@
06:00 UTC

Sep-18 @ 06:00 UTC

PROB30 TEMPO 1721/1806 VRB25G36KT 4000 TSRA BKN007 BKN015CB

Temporary - 30% Likelihood

Temporary - 30% Likelihood during this time.

Wind
  • Variable at 25 KTS
  • {Gusting to 36 KTS
Conditions
Thunderstorm, Rain
Cloud Levels
  • Broken at 700' AGL
  • Broken at 1,500' AGL